Decatur, Texas
Current Conditions -  °F | °C
As of 2:15 AM on Monday 24 Nov 2014 (Local Time) from KLUD Reporting Station
Clear Clear  
Wind Chill: 38°   Ceiling: Unl
Heat Index: 43°   Visibility: 10mi
Dew Point: 35°   Wind: 8mph
Humidity: 72%   Direction: 270°W
Pressure: 29.89"   Gusts: NA
Location:  33.23°N, 97.59°W
Report Text: KLUD 240815Z AUTO 27007KT 10SM CLR 06/02 A2989 RMK AO2 T00620015
Loading
Personal Weather Stations






























Interactive Weather Map New forecast layout! Learn more

10-Day Weather Forecast

Advertisements
Track Severe Weather on mobile